createdAt,value
2022-11-18T00:00:39.353Z,1.40
2022-11-18T00:05:29.173Z,1.80
2022-11-18T00:10:14.151Z,1.97
2022-11-18T00:14:56.673Z,1.80
2022-11-18T00:19:41.385Z,1.77
2022-11-18T00:24:25.092Z,1.80
2022-11-18T00:29:11.212Z,1.70
2022-11-18T00:46:00.894Z,8.13
2022-11-18T00:50:44.499Z,4.07
2022-11-18T00:55:28.171Z,4.67
2022-11-18T01:00:12.290Z,4.60
2022-11-18T01:04:57.075Z,4.93
2022-11-18T01:09:40.589Z,4.00
2022-11-18T01:14:26.341Z,3.83
2022-11-18T01:19:10.125Z,3.70
2022-11-18T01:23:55.340Z,3.70
2022-11-18T01:28:39.108Z,3.57
2022-11-18T01:33:22.470Z,3.47
2022-11-18T01:38:06.242Z,3.57
2022-11-18T01:42:51.021Z,3.73
2022-11-18T01:47:39.198Z,1.63
2022-11-18T01:52:23.612Z,1.60
2022-11-18T01:57:12.187Z,1.30
2022-11-18T02:01:59.969Z,1.40
2022-11-18T02:06:43.819Z,1.00
2022-11-18T02:11:53.338Z,1.30
2022-11-18T02:16:52.110Z,1.00
2022-11-18T02:21:47.732Z,0.53
2022-11-18T02:27:11.419Z,0.33
2022-11-18T02:32:00.452Z,0.13
2022-11-18T02:36:49.533Z,0.53
2022-11-18T02:41:36.485Z,0.00
2022-11-18T02:46:25.870Z,0.10
2022-11-18T02:51:13.570Z,0.10
2022-11-18T02:55:57.959Z,0.10
2022-11-18T03:00:41.598Z,0.20
2022-11-18T03:05:33.312Z,0.10
2022-11-18T03:10:18.913Z,0.30
2022-11-18T03:15:12.727Z,0.20
2022-11-18T03:20:07.098Z,0.20
2022-11-18T03:24:57.328Z,0.00
2022-11-18T03:29:46.887Z,0.10
2022-11-18T03:34:35.829Z,0.10
2022-11-18T03:39:21.723Z,0.07
2022-11-18T03:44:11.490Z,0.10
2022-11-18T03:48:58.066Z,0.20
2022-11-18T03:53:45.731Z,0.20
2022-11-18T03:58:35.028Z,0.20
2022-11-18T04:03:18.519Z,0.27
2022-11-18T04:08:05.478Z,0.20
2022-11-18T04:12:53.366Z,0.30
2022-11-18T04:17:36.828Z,0.20
2022-11-18T04:22:20.365Z,0.20
2022-11-18T04:27:05.697Z,0.30
2022-11-18T04:31:49.097Z,0.20
2022-11-18T04:36:32.413Z,0.20
2022-11-18T04:41:15.821Z,0.20
2022-11-18T04:46:00.932Z,0.10
2022-11-18T04:50:44.336Z,0.30
2022-11-18T04:55:27.775Z,0.33
2022-11-18T05:00:12.152Z,0.30
2022-11-18T05:04:56.950Z,0.40
2022-11-18T05:09:40.339Z,0.53
2022-11-18T05:14:26.107Z,0.50
2022-11-18T05:19:10.107Z,0.20
2022-11-18T05:23:54.896Z,0.10
2022-11-18T05:28:39.006Z,0.17
2022-11-18T05:33:22.522Z,0.30
2022-11-18T05:38:05.936Z,0.30
2022-11-18T05:43:08.034Z,0.47
2022-11-18T05:48:05.264Z,0.20
2022-11-18T05:52:48.647Z,0.20
2022-11-18T05:57:32.063Z,0.30
2022-11-18T06:02:21.247Z,0.30
2022-11-18T06:07:09.050Z,0.20
2022-11-18T06:11:56.473Z,0.40
2022-11-18T06:16:42.306Z,0.27
2022-11-18T06:21:27.405Z,2.70
2022-11-18T06:26:15.878Z,1.20
2022-11-18T06:30:59.390Z,0.77
2022-11-18T06:35:43.852Z,0.40
2022-11-18T06:40:34.274Z,0.50
2022-11-18T06:45:18.526Z,0.30
2022-11-18T06:50:02.123Z,0.30
2022-11-18T06:54:46.063Z,1.30
2022-11-18T06:59:30.848Z,1.90
2022-11-18T07:04:14.217Z,1.87
2022-11-18T07:08:58.212Z,1.80
2022-11-18T07:13:43.959Z,1.30
2022-11-18T07:18:30.861Z,0.77
2022-11-18T07:23:14.232Z,0.87
2022-11-18T07:27:57.644Z,2.00
2022-11-18T07:32:41.116Z,1.40
2022-11-18T07:37:25.898Z,1.40
2022-11-18T07:42:10.745Z,1.40
2022-11-18T07:46:54.107Z,1.67
2022-11-18T07:51:39.583Z,1.10
2022-11-18T07:56:24.821Z,0.60
2022-11-18T08:01:10.107Z,0.90
2022-11-18T08:05:53.512Z,0.73
2022-11-18T08:10:36.963Z,0.50
2022-11-18T08:15:21.833Z,1.10
2022-11-18T08:20:05.828Z,0.63
2022-11-18T08:24:49.505Z,0.60
2022-11-18T08:29:33.927Z,0.43
2022-11-18T08:34:18.918Z,0.70
2022-11-18T08:39:04.538Z,0.57
2022-11-18T08:43:48.094Z,0.60
2022-11-18T08:48:31.582Z,0.60
2022-11-18T08:53:17.277Z,1.10
2022-11-18T08:58:00.710Z,1.67
2022-11-18T09:02:44.360Z,1.07
2022-11-18T09:07:28.712Z,0.90
2022-11-18T09:12:15.257Z,0.80
2022-11-18T09:16:58.841Z,0.70
2022-11-18T09:21:42.295Z,1.37
2022-11-18T09:26:25.839Z,0.90
2022-11-18T09:31:12.689Z,0.93
2022-11-18T09:35:56.136Z,0.80
2022-11-18T09:40:49.964Z,0.80
2022-11-18T09:45:39.622Z,0.50
2022-11-18T09:55:29.811Z,0.30
2022-11-18T10:00:19.340Z,0.70
2022-11-18T10:05:09.793Z,0.20
2022-11-18T10:09:56.225Z,0.13
2022-11-18T10:14:55.216Z,0.27
2022-11-18T10:19:44.052Z,0.20
2022-11-18T10:24:31.705Z,0.20
2022-11-18T10:29:16.732Z,0.20
2022-11-18T10:34:01.274Z,0.10
2022-11-18T10:38:49.759Z,0.10
2022-11-18T10:43:49.797Z,0.33
2022-11-18T10:48:34.600Z,0.47
2022-11-18T10:53:31.857Z,0.50
2022-11-18T10:58:17.389Z,0.53
2022-11-18T11:03:00.956Z,0.47
2022-11-18T11:07:45.811Z,0.80
2022-11-18T11:12:32.617Z,0.50
2022-11-18T11:17:20.228Z,0.50
2022-11-18T11:22:03.788Z,0.60
2022-11-18T11:32:07.862Z,0.30
2022-11-18T11:36:58.563Z,0.40
2022-11-18T11:41:50.551Z,0.40
2022-11-18T11:46:44.414Z,1.10
2022-11-18T11:51:34.668Z,0.60
2022-11-18T11:56:25.650Z,1.23
2022-11-18T12:01:27.949Z,0.20
2022-11-18T12:06:12.989Z,0.20
2022-11-18T12:11:02.218Z,0.20
2022-11-18T12:15:57.264Z,0.27
2022-11-18T12:20:44.983Z,0.30
2022-11-18T12:25:56.018Z,0.10
2022-11-18T12:30:39.422Z,0.47
2022-11-18T12:35:29.803Z,0.40
2022-11-18T12:40:28.667Z,0.20
2022-11-18T12:45:53.913Z,0.30
2022-11-18T12:50:51.338Z,1.10
2022-11-18T12:55:39.595Z,0.30
2022-11-18T13:00:32.841Z,0.10
2022-11-18T13:05:22.290Z,0.30
2022-11-18T13:10:22.892Z,0.10
2022-11-18T13:15:30.889Z,0.50
2022-11-18T13:20:27.595Z,0.40
2022-11-18T13:25:26.362Z,0.20
2022-11-18T13:30:13.706Z,0.10
2022-11-18T13:34:59.055Z,0.17
2022-11-18T13:39:45.516Z,0.13
2022-11-18T13:44:32.883Z,0.60
2022-11-18T13:49:20.562Z,0.23
2022-11-18T13:54:04.511Z,0.10
2022-11-18T13:59:16.419Z,0.30
2022-11-18T14:04:02.317Z,0.27
2022-11-18T14:08:45.797Z,0.10
2022-11-18T14:13:42.789Z,0.40
2022-11-18T14:18:32.287Z,0.37
2022-11-18T14:23:18.740Z,0.30
2022-11-18T14:28:14.396Z,0.50
2022-11-18T14:33:18.566Z,0.43
2022-11-18T14:43:11.194Z,0.47
2022-11-18T14:47:54.686Z,0.30
2022-11-18T14:52:38.257Z,0.57
2022-11-18T14:57:21.733Z,0.40
2022-11-18T15:02:06.750Z,0.40
2022-11-18T15:06:50.717Z,0.80
2022-11-18T15:11:34.517Z,0.53
2022-11-18T15:16:21.165Z,0.53
2022-11-18T15:21:06.581Z,0.80
2022-11-18T15:25:50.229Z,0.70
2022-11-18T15:30:34.087Z,0.50
2022-11-18T15:35:17.869Z,0.57
2022-11-18T15:40:03.127Z,0.50
2022-11-18T15:44:46.627Z,0.40
2022-11-18T15:49:30.550Z,0.30
2022-11-18T15:54:14.237Z,0.90
2022-11-18T15:59:01.362Z,0.70
2022-11-18T16:03:45.598Z,0.63
2022-11-18T16:08:29.833Z,0.83
2022-11-18T16:13:13.267Z,0.60
2022-11-18T16:17:58.463Z,1.00
2022-11-18T16:22:41.951Z,1.10
2022-11-18T16:27:26.065Z,1.13
2022-11-18T16:32:15.329Z,1.00
2022-11-18T16:37:01.783Z,0.40
2022-11-18T16:41:46.120Z,2.20
2022-11-18T16:46:29.725Z,1.10
2022-11-18T16:51:21.467Z,0.53
2022-11-18T16:56:06.861Z,0.80
2022-11-18T17:01:17.573Z,1.93
2022-11-18T17:05:53.790Z,1.80
2022-11-18T17:10:37.676Z,1.57
2022-11-18T17:15:22.652Z,2.20
2022-11-18T17:20:06.966Z,2.67
2022-11-18T17:24:51.450Z,3.60
2022-11-18T17:29:35.824Z,2.20
2022-11-18T17:34:21.153Z,2.27
2022-11-18T17:39:05.477Z,1.90
2022-11-18T17:43:49.305Z,1.60
2022-11-18T17:48:33.758Z,2.50
2022-11-18T17:53:20.378Z,2.67
2022-11-18T17:58:03.922Z,2.83
2022-11-18T18:02:47.589Z,2.27
2022-11-18T18:07:32.340Z,2.00
2022-11-18T18:12:35.405Z,1.80
2022-11-18T18:17:20.118Z,1.50
2022-11-18T18:22:03.800Z,1.50
2022-11-18T18:26:48.411Z,1.30
2022-11-18T18:31:37.662Z,3.03
2022-11-18T18:36:25.482Z,0.70
2022-11-18T18:41:11.949Z,3.13
2022-11-18T18:46:30.903Z,2.50
2022-11-18T18:51:18.055Z,4.33
2022-11-18T18:56:03.321Z,4.10
2022-11-18T19:00:50.554Z,4.70
2022-11-18T19:06:08.595Z,2.53
2022-11-18T19:10:43.844Z,2.93
2022-11-18T19:15:27.724Z,5.43
2022-11-18T19:20:31.400Z,3.17
2022-11-18T19:25:16.860Z,3.20
2022-11-18T19:30:02.834Z,4.30
2022-11-18T19:34:47.429Z,3.70
2022-11-18T19:39:32.066Z,4.20
2022-11-18T19:44:16.259Z,5.07
2022-11-18T19:49:04.318Z,3.63
2022-11-18T19:53:48.892Z,2.90
2022-11-18T19:58:36.912Z,2.70
2022-11-18T20:03:22.665Z,3.93
2022-11-18T20:08:09.518Z,3.00
2022-11-18T20:12:54.592Z,2.67
2022-11-18T20:17:39.369Z,2.97
2022-11-18T20:22:23.853Z,3.00
2022-11-18T20:27:10.693Z,4.00
2022-11-18T20:31:56.279Z,4.73
2022-11-18T20:36:43.061Z,4.23
2022-11-18T20:41:33.976Z,4.63
2022-11-18T20:46:21.909Z,7.87
2022-11-18T20:51:08.158Z,3.20
2022-11-18T20:55:52.770Z,2.70
2022-11-18T21:00:37.518Z,3.50
2022-11-18T21:05:23.646Z,3.40
2022-11-18T21:10:08.630Z,3.20
2022-11-18T21:14:53.696Z,4.30
2022-11-18T21:19:38.516Z,4.40
2022-11-18T21:24:26.536Z,4.23
2022-11-18T21:29:13.625Z,4.47
2022-11-18T21:33:58.324Z,4.33
2022-11-18T21:38:42.359Z,3.53
2022-11-18T21:43:58.224Z,3.87
2022-11-18T21:48:36.762Z,4.03
2022-11-18T21:53:21.280Z,4.83
2022-11-18T21:58:05.125Z,4.80
2022-11-18T22:02:50.118Z,4.60
2022-11-18T22:07:33.948Z,4.30
2022-11-18T22:12:17.716Z,4.67
2022-11-18T22:17:01.600Z,5.83
2022-11-18T22:21:46.665Z,4.97
2022-11-18T22:26:30.837Z,4.87
2022-11-18T22:31:15.826Z,4.00
2022-11-18T22:36:02.839Z,4.80
2022-11-18T22:40:47.924Z,4.60
2022-11-18T22:45:31.456Z,4.20
2022-11-18T22:50:15.151Z,4.93
2022-11-18T22:54:58.858Z,5.00
2022-11-18T22:59:43.915Z,4.73
2022-11-18T23:04:27.434Z,4.30
2022-11-18T23:09:11.418Z,4.10
2022-11-18T23:14:03.936Z,5.13
2022-11-18T23:18:49.327Z,5.27
2022-11-18T23:23:33.455Z,5.53
2022-11-18T23:28:17.029Z,5.10
2022-11-18T23:33:00.637Z,4.30
2022-11-18T23:37:45.684Z,4.37
2022-11-18T23:42:29.222Z,3.87
2022-11-18T23:47:12.856Z,3.40
2022-11-18T23:51:56.362Z,3.27
2022-11-18T23:56:41.288Z,3.40
